createdAt,value
2019-01-15T00:01:18.663Z,25.40
2019-01-15T00:03:52.314Z,40.12
2019-01-15T00:06:26.096Z,29.00
2019-01-15T00:08:59.917Z,33.20
2019-01-15T00:11:33.528Z,26.33
2019-01-15T00:14:07.612Z,31.73
2019-01-15T00:16:41.498Z,22.77
2019-01-15T00:19:15.641Z,27.80
2019-01-15T00:21:50.231Z,22.13
2019-01-15T00:24:25.167Z,31.03
2019-01-15T00:27:18.176Z,26.80
2019-01-15T00:29:53.334Z,24.72
2019-01-15T00:32:29.833Z,26.23
2019-01-15T00:35:04.562Z,26.37
2019-01-15T00:37:40.051Z,42.67
2019-01-15T00:40:22.719Z,35.95
2019-01-15T00:42:57.502Z,33.55
2019-01-15T00:45:31.731Z,26.17
2019-01-15T00:48:16.416Z,34.10
2019-01-15T00:50:51.293Z,30.92
2019-01-15T00:53:26.717Z,27.52
2019-01-15T00:56:02.413Z,32.40
2019-01-15T00:58:37.193Z,39.58
2019-01-15T01:01:36.834Z,35.07
2019-01-15T01:04:10.952Z,33.87
2019-01-15T01:06:44.795Z,35.40
2019-01-15T01:09:18.560Z,25.83
2019-01-15T01:11:53.344Z,33.33
2019-01-15T01:14:26.467Z,31.53
2019-01-15T01:19:41.915Z,27.33
2019-01-15T01:22:15.721Z,38.57
2019-01-15T01:25:06.351Z,38.90
2019-01-15T01:27:40.365Z,26.13
2019-01-15T01:30:16.685Z,33.27
2019-01-15T01:32:51.644Z,33.80
2019-01-15T01:35:25.264Z,34.90
2019-01-15T01:38:24.708Z,34.78
2019-01-15T01:40:59.447Z,50.10
2019-01-15T01:43:33.392Z,40.90
2019-01-15T01:46:07.152Z,37.63
2019-01-15T01:48:41.395Z,31.33
2019-01-15T01:51:15.125Z,39.37
2019-01-15T01:53:48.779Z,40.00
2019-01-15T01:56:22.676Z,33.83
2019-01-15T01:58:56.524Z,45.10
2019-01-15T02:01:30.124Z,43.40
2019-01-15T02:04:03.980Z,31.63
2019-01-15T02:06:37.929Z,41.63
2019-01-15T02:09:11.700Z,35.63
2019-01-15T02:11:45.774Z,45.93
2019-01-15T02:14:19.551Z,38.70
2019-01-15T02:16:53.113Z,40.50
2019-01-15T02:19:26.893Z,41.14
2019-01-15T02:22:01.897Z,37.50
2019-01-15T02:24:35.656Z,38.63
2019-01-15T02:27:11.132Z,42.27
2019-01-15T02:29:44.798Z,39.80
2019-01-15T02:32:18.399Z,34.17
2019-01-15T02:34:51.996Z,45.37
2019-01-15T02:37:27.023Z,37.87
2019-01-15T02:40:02.053Z,31.90
2019-01-15T02:42:36.277Z,49.73
2019-01-15T02:45:13.403Z,36.28
2019-01-15T02:47:47.326Z,39.30
2019-01-15T02:50:23.546Z,37.73
2019-01-15T02:53:08.124Z,35.10
2019-01-15T02:55:41.891Z,39.40
2019-01-15T02:58:15.354Z,35.47
2019-01-15T03:00:48.973Z,34.03
2019-01-15T03:03:22.633Z,35.13
2019-01-15T03:05:56.817Z,26.33
2019-01-15T03:08:30.854Z,31.17
2019-01-15T03:11:04.483Z,30.07
2019-01-15T03:13:38.274Z,23.97
2019-01-15T03:16:12.197Z,30.83
2019-01-15T03:18:47.793Z,30.63
2019-01-15T03:21:22.553Z,30.43
2019-01-15T03:23:55.881Z,29.10
2019-01-15T03:26:31.053Z,30.07
2019-01-15T03:29:05.124Z,30.07
2019-01-15T03:31:39.105Z,25.00
2019-01-15T03:34:13.579Z,27.63
2019-01-15T03:36:47.471Z,38.30
2019-01-15T03:39:24.106Z,23.90
2019-01-15T03:41:58.838Z,29.33
2019-01-15T03:44:32.943Z,33.23
2019-01-15T03:47:06.799Z,30.80
2019-01-15T03:49:41.399Z,28.47
2019-01-15T03:52:15.367Z,30.37
2019-01-15T03:54:50.481Z,31.10
2019-01-15T03:57:24.135Z,30.67
2019-01-15T03:59:59.264Z,36.28
2019-01-15T04:02:33.468Z,28.73
2019-01-15T04:05:08.218Z,28.43
2019-01-15T04:07:42.621Z,23.50
2019-01-15T04:10:16.562Z,25.50
2019-01-15T04:12:50.500Z,26.00
2019-01-15T04:15:25.535Z,31.17
2019-01-15T04:18:00.482Z,21.87
2019-01-15T04:20:34.371Z,25.67
2019-01-15T04:23:08.146Z,23.77
2019-01-15T04:25:41.774Z,21.77
2019-01-15T04:28:15.615Z,26.40
2019-01-15T04:30:50.576Z,22.70
2019-01-15T04:33:24.244Z,19.77
2019-01-15T04:35:59.339Z,23.67
2019-01-15T04:38:33.162Z,21.60
2019-01-15T04:41:10.856Z,25.40
2019-01-15T04:43:44.683Z,18.87
2019-01-15T04:46:19.719Z,16.57
2019-01-15T04:48:53.517Z,17.70
2019-01-15T04:51:27.126Z,15.20
2019-01-15T04:54:01.103Z,12.37
2019-01-15T04:56:37.952Z,12.50
2019-01-15T04:59:10.845Z,24.23
2019-01-15T05:01:46.002Z,17.93
2019-01-15T05:04:20.129Z,16.97
2019-01-15T05:06:53.721Z,25.40
2019-01-15T05:09:28.661Z,12.10
2019-01-15T05:12:03.921Z,13.37
2019-01-15T05:14:38.773Z,13.17
2019-01-15T05:17:33.418Z,11.40
2019-01-15T05:20:19.236Z,12.93
2019-01-15T05:22:59.149Z,16.67
2019-01-15T05:25:31.576Z,13.00
2019-01-15T05:28:06.985Z,13.28
2019-01-15T05:30:41.187Z,17.17
2019-01-15T05:33:19.124Z,18.07
2019-01-15T05:35:54.266Z,17.07
2019-01-15T05:38:31.732Z,12.88
2019-01-15T05:41:06.264Z,11.93
2019-01-15T05:43:40.292Z,14.40
2019-01-15T05:46:16.748Z,13.30
2019-01-15T05:48:51.197Z,23.32
2019-01-15T05:51:24.833Z,22.67
2019-01-15T05:53:58.611Z,12.05
2019-01-15T05:56:33.971Z,12.83
2019-01-15T05:59:08.049Z,18.10
2019-01-15T06:01:42.250Z,15.63
2019-01-15T06:04:19.197Z,10.67
2019-01-15T06:06:54.329Z,14.98
2019-01-15T06:09:28.034Z,13.05
2019-01-15T06:12:01.718Z,15.93
2019-01-15T06:14:35.419Z,15.57
2019-01-15T06:17:10.304Z,12.75
2019-01-15T06:19:44.182Z,16.17
2019-01-15T06:22:17.995Z,12.70
2019-01-15T06:24:51.976Z,11.57
2019-01-15T06:27:25.913Z,9.50
2019-01-15T06:29:59.630Z,13.03
2019-01-15T06:32:33.676Z,17.37
2019-01-15T06:35:07.588Z,16.33
2019-01-15T06:37:41.337Z,9.70
2019-01-15T06:40:17.483Z,11.13
2019-01-15T06:42:51.830Z,16.70
2019-01-15T06:45:33.265Z,11.80
2019-01-15T06:48:07.974Z,10.32
2019-01-15T06:50:42.126Z,9.07
2019-01-15T06:53:16.726Z,11.50
2019-01-15T06:55:50.435Z,13.07
2019-01-15T06:58:24.447Z,14.40
2019-01-15T07:00:58.683Z,16.48
2019-01-15T07:03:32.445Z,12.80
2019-01-15T07:06:06.436Z,13.03
2019-01-15T07:08:40.532Z,14.03
2019-01-15T07:11:14.662Z,18.63
2019-01-15T07:13:48.502Z,17.57
2019-01-15T07:16:27.224Z,10.20
2019-01-15T07:19:02.036Z,14.67
2019-01-15T07:21:35.467Z,13.63
2019-01-15T07:24:09.134Z,12.60
2019-01-15T07:26:48.634Z,14.40
2019-01-15T07:29:22.517Z,10.93
2019-01-15T07:31:56.551Z,14.07
2019-01-15T07:34:30.438Z,11.95
2019-01-15T07:37:04.802Z,11.67
2019-01-15T07:39:38.880Z,11.93
2019-01-15T07:42:18.860Z,9.90
2019-01-15T07:44:52.621Z,8.63
2019-01-15T07:47:26.253Z,9.93
2019-01-15T07:50:00.826Z,16.97
2019-01-15T07:52:36.027Z,17.90
2019-01-15T07:55:15.160Z,10.47
2019-01-15T07:57:49.342Z,13.80
2019-01-15T08:00:29.431Z,13.27
2019-01-15T08:03:03.030Z,21.53
2019-01-15T08:05:38.301Z,19.00
2019-01-15T08:08:12.667Z,11.67
2019-01-15T08:10:56.734Z,13.67
2019-01-15T08:13:26.228Z,12.07
2019-01-15T08:16:00.437Z,19.80
2019-01-15T08:18:34.356Z,12.77
2019-01-15T08:21:09.152Z,15.13
2019-01-15T08:23:43.356Z,18.95
2019-01-15T08:26:17.327Z,16.63
2019-01-15T08:28:53.705Z,20.20
2019-01-15T08:31:27.303Z,17.43
2019-01-15T08:34:01.357Z,14.90
2019-01-15T08:36:37.140Z,14.98
2019-01-15T08:39:11.474Z,16.20
2019-01-15T08:41:47.551Z,15.93
2019-01-15T08:44:22.479Z,14.25
2019-01-15T08:46:57.734Z,16.50
2019-01-15T08:49:31.875Z,16.67
2019-01-15T08:52:06.027Z,13.77
2019-01-15T08:54:40.180Z,20.60
2019-01-15T08:57:17.523Z,15.97
2019-01-15T08:59:51.434Z,21.70
2019-01-15T09:02:26.313Z,22.17
2019-01-15T09:05:00.301Z,31.75
2019-01-15T09:07:34.342Z,30.03
2019-01-15T09:10:10.641Z,28.50
2019-01-15T09:12:45.893Z,27.40
2019-01-15T09:15:26.437Z,24.95
2019-01-15T09:17:59.529Z,26.77
2019-01-15T09:20:34.382Z,30.87
2019-01-15T09:23:12.175Z,33.23
2019-01-15T09:25:46.093Z,34.13
2019-01-15T09:28:24.257Z,25.85
2019-01-15T09:30:59.802Z,25.23
2019-01-15T09:33:33.403Z,27.23
2019-01-15T09:36:07.227Z,32.80
2019-01-15T09:38:41.648Z,30.67
2019-01-15T09:41:15.857Z,25.60
2019-01-15T09:43:50.515Z,26.20
2019-01-15T09:46:26.326Z,31.60
2019-01-15T09:49:00.041Z,34.18
2019-01-15T09:51:33.980Z,36.30
2019-01-15T09:54:09.868Z,34.87
2019-01-15T09:56:43.957Z,32.20
2019-01-15T09:59:18.980Z,38.33
2019-01-15T10:01:54.524Z,32.77
2019-01-15T10:04:28.446Z,38.42
2019-01-15T10:07:02.766Z,42.73
2019-01-15T10:09:37.028Z,37.53
2019-01-15T10:12:11.652Z,42.30
2019-01-15T10:14:47.628Z,42.47
2019-01-15T10:17:22.741Z,43.40
2019-01-15T10:19:58.109Z,47.80
2019-01-15T10:22:34.299Z,47.20
2019-01-15T10:25:09.248Z,51.13
2019-01-15T10:27:45.575Z,58.10
2019-01-15T10:30:28.122Z,70.50
2019-01-15T10:33:17.302Z,76.50
2019-01-15T10:35:53.944Z,76.73
2019-01-15T10:38:30.780Z,72.77
2019-01-15T10:41:06.938Z,60.48
2019-01-15T10:43:45.906Z,58.27
2019-01-15T10:46:22.459Z,62.87
2019-01-15T10:48:56.280Z,51.73
2019-01-15T10:51:31.439Z,46.17
2019-01-15T10:54:10.707Z,70.23
2019-01-15T10:56:47.022Z,52.30
2019-01-15T10:59:21.788Z,54.93
2019-01-15T11:01:59.851Z,58.63
2019-01-15T11:04:34.803Z,37.30
2019-01-15T11:07:09.946Z,40.50
2019-01-15T11:09:45.264Z,26.30
2019-01-15T11:12:23.165Z,44.13
2019-01-15T11:15:01.882Z,49.30
2019-01-15T11:17:41.099Z,49.90
2019-01-15T11:20:24.305Z,32.48
2019-01-15T11:23:02.777Z,35.87
2019-01-15T11:25:39.877Z,39.90
2019-01-15T11:28:18.890Z,47.55
2019-01-15T11:30:55.506Z,35.47
2019-01-15T11:33:32.306Z,46.87
2019-01-15T11:36:11.326Z,40.77
2019-01-15T11:38:46.703Z,33.27
2019-01-15T11:41:24.119Z,37.10
2019-01-15T11:44:00.288Z,31.50
2019-01-15T11:46:45.395Z,34.43
2019-01-15T11:49:20.661Z,53.23
2019-01-15T11:52:00.907Z,43.70
2019-01-15T11:54:36.098Z,43.13
2019-01-15T11:57:12.671Z,53.87
2019-01-15T11:59:48.059Z,44.47
2019-01-15T12:02:25.781Z,44.70
2019-01-15T12:05:00.705Z,55.17
2019-01-15T12:07:37.311Z,57.07
2019-01-15T12:10:15.161Z,48.63
2019-01-15T12:12:51.448Z,57.47
2019-01-15T12:15:27.031Z,55.50
2019-01-15T12:18:03.985Z,54.93
2019-01-15T12:20:40.830Z,60.67
2019-01-15T12:23:17.573Z,40.83
2019-01-15T12:25:56.021Z,52.25
2019-01-15T12:28:35.489Z,32.17
2019-01-15T12:31:16.901Z,39.67
2019-01-15T12:33:55.409Z,55.70
2019-01-15T12:36:31.371Z,48.65
2019-01-15T12:39:09.595Z,49.33
2019-01-15T12:41:45.491Z,42.40
2019-01-15T12:44:20.381Z,42.67
2019-01-15T12:46:56.626Z,39.27
2019-01-15T12:49:32.498Z,37.67
2019-01-15T12:52:08.380Z,41.47
2019-01-15T12:54:43.937Z,44.20
2019-01-15T12:57:19.332Z,43.45
2019-01-15T12:59:56.101Z,50.80
2019-01-15T13:02:34.450Z,35.83
2019-01-15T13:05:13.901Z,40.23
2019-01-15T13:07:49.342Z,38.63
2019-01-15T13:10:26.268Z,37.60
2019-01-15T13:13:01.978Z,30.87
2019-01-15T13:15:36.908Z,39.40
2019-01-15T13:18:16.035Z,33.90
2019-01-15T13:20:52.963Z,22.27
2019-01-15T13:23:28.277Z,34.97
2019-01-15T13:26:03.071Z,32.33
2019-01-15T13:28:40.836Z,23.95
2019-01-15T13:31:15.537Z,27.73
2019-01-15T13:33:51.339Z,32.97
2019-01-15T13:36:26.326Z,30.50
2019-01-15T13:39:02.586Z,31.17
2019-01-15T13:41:41.202Z,22.63
2019-01-15T13:44:16.512Z,18.30
2019-01-15T13:46:52.228Z,21.17
2019-01-15T13:49:27.693Z,28.37
2019-01-15T13:52:02.826Z,20.77
2019-01-15T13:54:38.511Z,27.58
2019-01-15T13:57:14.319Z,22.95
2019-01-15T13:59:52.428Z,20.20
2019-01-15T14:02:29.221Z,21.05
2019-01-15T14:05:06.558Z,35.10
2019-01-15T14:07:42.304Z,28.60
2019-01-15T14:10:18.820Z,23.80
2019-01-15T14:12:54.652Z,23.47
2019-01-15T14:15:31.949Z,24.90
2019-01-15T14:18:10.671Z,22.80
2019-01-15T14:20:46.784Z,37.17
2019-01-15T14:23:23.055Z,26.63
2019-01-15T14:26:01.464Z,25.50
2019-01-15T14:28:36.685Z,25.10
2019-01-15T14:31:12.529Z,21.23
2019-01-15T14:33:47.334Z,28.80
2019-01-15T14:36:24.722Z,25.50
2019-01-15T14:39:00.797Z,28.70
2019-01-15T14:41:39.220Z,30.55
2019-01-15T14:44:17.453Z,27.47
2019-01-15T14:46:54.019Z,30.13
2019-01-15T14:49:33.866Z,26.30
2019-01-15T14:52:11.287Z,32.87
2019-01-15T14:54:45.735Z,36.07
2019-01-15T14:57:20.774Z,26.73
2019-01-15T14:59:54.861Z,27.63
2019-01-15T15:02:28.984Z,36.63
2019-01-15T15:05:03.366Z,30.40
2019-01-15T15:07:38.607Z,24.40
2019-01-15T15:10:15.282Z,30.60
2019-01-15T15:12:49.589Z,31.73
2019-01-15T15:15:23.768Z,37.83
2019-01-15T15:18:00.696Z,29.82
2019-01-15T15:20:34.878Z,38.10
2019-01-15T15:23:08.773Z,28.80
2019-01-15T15:25:42.775Z,24.25
2019-01-15T15:28:16.835Z,37.78
2019-01-15T15:30:50.962Z,35.33
2019-01-15T15:33:25.440Z,35.43
2019-01-15T15:36:00.325Z,21.00
2019-01-15T15:38:33.976Z,29.97
2019-01-15T15:41:10.995Z,31.63
2019-01-15T15:43:44.707Z,28.53
2019-01-15T15:46:18.800Z,28.80
2019-01-15T15:48:52.825Z,29.47
2019-01-15T15:51:26.562Z,34.40
2019-01-15T15:54:00.992Z,25.90
2019-01-15T15:56:34.889Z,30.95
2019-01-15T15:59:09.079Z,32.60
2019-01-15T16:01:43.062Z,30.27
2019-01-15T16:04:18.336Z,30.30
2019-01-15T16:06:55.070Z,28.87
2019-01-15T16:09:28.997Z,35.20
2019-01-15T16:12:05.932Z,26.12
2019-01-15T16:14:40.078Z,27.13
2019-01-15T16:17:14.045Z,31.27
2019-01-15T16:19:48.764Z,28.35
2019-01-15T16:22:22.717Z,27.33
2019-01-15T16:24:56.927Z,24.37
2019-01-15T16:27:31.999Z,34.85
2019-01-15T16:30:17.552Z,29.87
2019-01-15T16:32:54.565Z,23.80
2019-01-15T16:35:29.018Z,29.27
2019-01-15T16:38:02.885Z,20.13
2019-01-15T16:40:38.255Z,21.37
2019-01-15T16:43:12.127Z,18.07
2019-01-15T16:45:46.191Z,30.47
2019-01-15T16:48:24.934Z,14.70
2019-01-15T16:50:59.852Z,20.63
2019-01-15T16:53:33.929Z,22.93
2019-01-15T16:56:11.422Z,18.03
2019-01-15T16:58:45.333Z,22.58
2019-01-15T17:01:20.622Z,14.47
2019-01-15T17:03:54.542Z,21.80
2019-01-15T17:06:28.575Z,18.20
2019-01-15T17:09:03.224Z,18.43
2019-01-15T17:11:37.716Z,24.60
2019-01-15T17:14:11.816Z,23.83
2019-01-15T17:16:47.280Z,14.00
2019-01-15T17:19:21.675Z,16.77
2019-01-15T17:21:55.805Z,17.15
2019-01-15T17:24:29.423Z,14.40
2019-01-15T17:27:02.959Z,20.20
2019-01-15T17:29:37.024Z,16.70
2019-01-15T17:32:10.804Z,18.37
2019-01-15T17:34:44.293Z,19.80
2019-01-15T17:37:18.319Z,14.77
2019-01-15T17:39:53.056Z,21.47
2019-01-15T17:42:27.585Z,17.20
2019-01-15T17:45:01.780Z,27.00
2019-01-15T17:47:35.955Z,20.43
2019-01-15T17:50:12.193Z,32.40
2019-01-15T17:52:46.509Z,24.13
2019-01-15T17:55:22.160Z,16.97
2019-01-15T17:57:56.071Z,25.93
2019-01-15T18:00:30.039Z,16.07
2019-01-15T18:03:04.321Z,16.40
2019-01-15T18:05:38.971Z,25.60
2019-01-15T18:08:13.377Z,27.22
2019-01-15T18:10:47.246Z,15.17
2019-01-15T18:13:21.160Z,22.07
2019-01-15T18:15:55.791Z,16.83
2019-01-15T18:18:29.918Z,30.00
2019-01-15T18:21:03.372Z,24.40
2019-01-15T18:23:36.945Z,20.37
2019-01-15T18:26:11.593Z,21.13
2019-01-15T18:28:46.457Z,19.67
2019-01-15T18:31:20.450Z,17.70
2019-01-15T18:33:55.733Z,26.17
2019-01-15T18:36:29.587Z,24.57
2019-01-15T18:39:03.765Z,20.47
2019-01-15T18:41:37.793Z,19.70
2019-01-15T18:44:11.619Z,25.68
2019-01-15T18:46:45.431Z,35.10
2019-01-15T18:49:20.133Z,17.87
2019-01-15T18:51:54.248Z,19.95
2019-01-15T18:54:27.955Z,18.27
2019-01-15T18:57:01.978Z,22.20
2019-01-15T18:59:35.854Z,20.87
2019-01-15T19:02:09.775Z,24.77
2019-01-15T19:04:45.342Z,21.40
2019-01-15T19:07:20.293Z,26.10
2019-01-15T19:09:55.476Z,18.05
2019-01-15T19:12:29.175Z,28.80
2019-01-15T19:15:02.743Z,22.67
2019-01-15T19:17:36.331Z,25.88
2019-01-15T19:20:12.775Z,15.17
2019-01-15T19:22:46.622Z,28.63
2019-01-15T19:25:20.223Z,20.53
2019-01-15T19:27:54.923Z,28.30
2019-01-15T19:30:28.628Z,18.13
2019-01-15T19:33:02.207Z,24.23
2019-01-15T19:35:35.798Z,33.20
2019-01-15T19:38:09.706Z,19.90
2019-01-15T19:40:43.241Z,22.07
2019-01-15T19:43:16.908Z,22.47
2019-01-15T19:45:50.872Z,23.43
2019-01-15T19:48:24.895Z,29.57
2019-01-15T19:50:58.764Z,25.60
2019-01-15T19:53:32.782Z,39.67
2019-01-15T19:56:06.620Z,31.52
2019-01-15T19:58:40.420Z,20.57
2019-01-15T20:01:14.605Z,16.03
2019-01-15T20:03:48.180Z,21.90
2019-01-15T20:06:23.377Z,26.67
2019-01-15T20:08:57.211Z,22.30
2019-01-15T20:11:31.711Z,26.37
2019-01-15T20:14:05.251Z,37.67
2019-01-15T20:16:40.086Z,21.40
2019-01-15T20:19:13.669Z,34.03
2019-01-15T20:21:47.616Z,20.30
2019-01-15T20:24:21.292Z,45.43
2019-01-15T20:26:54.911Z,30.70
2019-01-15T20:29:28.452Z,29.55
2019-01-15T20:32:02.430Z,25.10
2019-01-15T20:34:35.629Z,24.97
2019-01-15T20:37:09.808Z,26.53
2019-01-15T20:39:43.510Z,30.20
2019-01-15T20:42:17.611Z,35.73
2019-01-15T20:44:51.807Z,21.17
2019-01-15T20:47:25.951Z,29.63
2019-01-15T20:50:00.283Z,27.67
2019-01-15T20:52:34.721Z,24.87
2019-01-15T20:55:10.930Z,30.83
2019-01-15T20:57:46.326Z,30.97
2019-01-15T21:00:20.531Z,34.07
2019-01-15T21:02:54.225Z,43.53
2019-01-15T21:05:28.041Z,24.47
2019-01-15T21:08:01.749Z,32.33
2019-01-15T21:10:35.318Z,27.03
2019-01-15T21:13:09.575Z,35.25
2019-01-15T21:15:43.554Z,29.52
2019-01-15T21:18:17.666Z,40.00
2019-01-15T21:20:51.615Z,40.10
2019-01-15T21:23:26.263Z,32.83
2019-01-15T21:26:01.156Z,23.00
2019-01-15T21:28:34.678Z,35.13
2019-01-15T21:31:09.432Z,29.07
2019-01-15T21:33:43.193Z,25.72
2019-01-15T21:36:17.007Z,26.67
2019-01-15T21:38:52.695Z,31.43
2019-01-15T21:41:25.826Z,29.13
2019-01-15T21:43:59.770Z,30.13
2019-01-15T21:46:39.809Z,35.83
2019-01-15T21:49:13.973Z,33.10
2019-01-15T21:51:51.496Z,38.78
2019-01-15T21:54:25.793Z,25.23
2019-01-15T21:57:00.417Z,38.83
2019-01-15T21:59:33.845Z,35.33
2019-01-15T22:02:07.669Z,42.57
2019-01-15T22:05:01.944Z,41.03
2019-01-15T22:07:35.732Z,39.10
2019-01-15T22:10:11.893Z,28.42
2019-01-15T22:12:46.242Z,34.73
2019-01-15T22:15:20.913Z,38.17
2019-01-15T22:17:54.294Z,32.80
2019-01-15T22:20:27.824Z,31.53
2019-01-15T22:23:01.660Z,25.10
2019-01-15T22:25:36.063Z,45.23
2019-01-15T22:28:13.536Z,37.42
2019-01-15T22:30:47.510Z,45.43
2019-01-15T22:33:23.263Z,39.93
2019-01-15T22:35:58.201Z,43.77
2019-01-15T22:38:33.025Z,40.93
2019-01-15T22:41:09.071Z,64.30
2019-01-15T22:43:42.854Z,51.20
2019-01-15T22:46:16.963Z,46.33
2019-01-15T22:48:51.889Z,42.62
2019-01-15T22:51:26.947Z,40.90
2019-01-15T22:54:00.967Z,53.10
2019-01-15T22:56:52.954Z,56.73
2019-01-15T22:59:26.970Z,47.20
2019-01-15T23:02:00.731Z,48.30
2019-01-15T23:04:37.390Z,48.03
2019-01-15T23:07:11.433Z,47.48
2019-01-15T23:09:45.561Z,60.52
2019-01-15T23:12:19.302Z,52.33
2019-01-15T23:14:53.515Z,56.07
2019-01-15T23:17:28.636Z,61.10
2019-01-15T23:20:02.177Z,58.98
2019-01-15T23:22:35.970Z,64.47
2019-01-15T23:25:11.722Z,51.73
2019-01-15T23:27:46.347Z,68.57
2019-01-15T23:30:20.224Z,57.17
2019-01-15T23:32:55.160Z,60.40
2019-01-15T23:35:29.158Z,59.37
2019-01-15T23:38:03.745Z,63.27
2019-01-15T23:40:37.554Z,54.77
2019-01-15T23:43:10.692Z,47.87
2019-01-15T23:45:44.734Z,84.72
2019-01-15T23:48:18.590Z,59.93
2019-01-15T23:50:52.557Z,65.77
2019-01-15T23:53:27.943Z,62.07
2019-01-15T23:56:03.567Z,59.05
2019-01-15T23:58:37.458Z,54.87
